EKRK/RKE METAR and TAF weather

Enter ICAO airport designator
Station Type Date Time Source
EKRK METAR 2019/10/21 05:20 UTC NOAA

EKRK 210520Z AUTO 03003KT 1500 BR OVC002/// 11/11 Q1017


Station Type Date Time Source
EKRK Decoded METAR 2019/10/21 05:20 UTC NOAA

Koebenhavn / Roskilde, Denmark (EKRK) 55-35N 012-08E 44M
Oct 21, 2019 - 01:20 AM EDT / 2019.10.21 0520 UTC
Wind: from the NNE (030 degrees) at 3 MPH (3 KT):0
Visibility: less than 1 mile:0
Sky conditions: overcast
Weather: mist
Temperature: 51 F (11 C)
Dew Point: 51 F (11 C)
Relative Humidity: 100%
Pressure (altimeter): 30.03 in. Hg (1017 hPa)
ob: EKRK 210520Z AUTO 03003KT 1500 BR OVC002/// 11/11 Q1017
cycle: 5

Station Type Date Time Source
EKRK TAF UTC NOAA

Error!

Example: see airport list